Main page
METAR-TAF:

METAR-TAF

Airports :

Paganella, Italy

latitude: 46-09N, longitude: 011-02E, elevation: 2125 m

Current weather observation

The report was made 31 minutes ago, at 18:55 UTC
Wind 7 kt from the South
Temperature 6°C
Humidity 75%
Pressure 1021 hPa
Visibility 10 km or more
no clouds below 1500 m and no cumulonimbus

METAR: LIVP 211855Z 18007KT CAVOK 06/02 Q1021 RMK BKN BKN170 MON LIB VAL NEBBIA SCT VIS MIN 9999

Time: 21:26 (19:26 UTC)


TAF: missing

Weather observations and forecasts of more than 4000 airports (METAR and TAF reports).

The available stations are represented by yellow and red dots on the map.

Hover mouse over dot to see the name of the station.

Then click to see weather observations and forecasts.

To change the map : click on the green buttons with a black cross to zoom in, on the green button with a dash to zoom out, or on the green arrows for adjacent maps.


METAR-TAF: